createdAt,value
2018-11-10T00:01:41.413Z,11.35
2018-11-10T00:04:27.686Z,11.32
2018-11-10T00:06:56.735Z,11.28
2018-11-10T00:09:25.754Z,11.27
2018-11-10T00:11:56.130Z,11.23
2018-11-10T00:14:25.233Z,11.21
2018-11-10T00:16:54.186Z,11.18
2018-11-10T00:19:23.174Z,11.16
2018-11-10T00:21:52.207Z,11.11
2018-11-10T00:24:21.200Z,11.10
2018-11-10T00:26:50.225Z,11.06
2018-11-10T00:29:19.469Z,11.06
2018-11-10T00:31:48.514Z,11.06
2018-11-10T00:34:17.579Z,11.07
2018-11-10T00:36:46.603Z,11.05
2018-11-10T00:39:15.670Z,11.04
2018-11-10T00:41:44.762Z,11.02
2018-11-10T00:44:13.783Z,10.99
2018-11-10T00:46:42.817Z,10.98
2018-11-10T00:49:11.840Z,10.98
2018-11-10T00:51:40.998Z,10.98
2018-11-10T00:54:09.971Z,11.01
2018-11-10T00:56:39.006Z,11.03
2018-11-10T00:59:08.785Z,11.04
2018-11-10T01:01:37.773Z,11.06
2018-11-10T01:04:07.203Z,11.08
2018-11-10T01:06:36.229Z,11.11
2018-11-10T01:09:06.600Z,11.13
2018-11-10T01:11:35.658Z,11.12
2018-11-10T01:14:04.855Z,11.10
2018-11-10T01:16:33.869Z,11.08
2018-11-10T01:19:02.942Z,11.04
2018-11-10T01:21:31.995Z,10.98
2018-11-10T01:24:01.040Z,10.94
2018-11-10T01:26:30.012Z,10.88
2018-11-10T01:28:59.097Z,10.83
2018-11-10T01:31:28.165Z,10.80
2018-11-10T01:33:57.188Z,10.75
2018-11-10T01:36:26.176Z,10.75
2018-11-10T01:38:55.287Z,10.71
2018-11-10T01:41:24.287Z,10.69
2018-11-10T01:43:53.343Z,10.67
2018-11-10T01:46:22.504Z,10.65
2018-11-10T01:48:51.496Z,10.64
2018-11-10T01:51:20.520Z,10.62
2018-11-10T01:53:49.583Z,10.65
2018-11-10T01:56:18.580Z,10.68
2018-11-10T01:58:48.287Z,10.71
2018-11-10T02:01:17.304Z,10.72
2018-11-10T02:03:46.369Z,10.73
2018-11-10T02:06:15.538Z,10.76
2018-11-10T02:08:44.803Z,10.77
2018-11-10T02:11:14.096Z,10.78
2018-11-10T02:13:43.173Z,10.79
2018-11-10T02:16:12.261Z,10.80
2018-11-10T02:18:41.392Z,10.79
2018-11-10T02:21:10.594Z,10.81
2018-11-10T02:23:39.763Z,10.81
2018-11-10T02:26:08.882Z,10.81
2018-11-10T02:28:38.182Z,10.82
2018-11-10T02:31:07.371Z,10.82
2018-11-10T02:33:36.371Z,10.83
2018-11-10T02:36:05.656Z,10.84
2018-11-10T02:38:34.808Z,10.87
2018-11-10T02:41:03.825Z,10.90
2018-11-10T02:43:32.830Z,10.93
2018-11-10T02:46:02.073Z,10.95
2018-11-10T02:48:32.088Z,10.99
2018-11-10T02:51:01.074Z,11.02
2018-11-10T02:53:30.213Z,10.99
2018-11-10T02:55:59.352Z,10.95
2018-11-10T02:58:28.360Z,10.90
2018-11-10T03:00:57.501Z,10.85
2018-11-10T03:03:26.586Z,10.79
2018-11-10T03:05:55.827Z,10.73
2018-11-10T03:08:24.848Z,10.69
2018-11-10T03:10:53.856Z,10.64
2018-11-10T03:13:23.327Z,10.60
2018-11-10T03:15:52.413Z,10.56
2018-11-10T03:18:21.444Z,10.52
2018-11-10T03:20:50.701Z,10.48
2018-11-10T03:23:19.826Z,10.44
2018-11-10T03:25:48.862Z,10.42
2018-11-10T03:28:17.829Z,10.40
2018-11-10T03:30:47.200Z,10.37
2018-11-10T03:33:16.184Z,10.36
2018-11-10T03:35:45.860Z,10.33
2018-11-10T03:38:15.131Z,10.33
2018-11-10T03:40:44.359Z,10.31
2018-11-10T03:43:13.349Z,10.31
2018-11-10T03:45:42.330Z,10.29
2018-11-10T03:48:11.725Z,10.25
2018-11-10T03:50:40.708Z,10.23
2018-11-10T03:53:09.657Z,10.21
2018-11-10T03:55:38.826Z,10.21
2018-11-10T03:58:08.001Z,10.22
2018-11-10T04:00:37.017Z,10.23
2018-11-10T04:03:06.127Z,10.23
2018-11-10T04:05:35.122Z,10.21
2018-11-10T04:08:04.196Z,10.19
2018-11-10T04:10:33.221Z,10.19
2018-11-10T04:13:02.222Z,10.19
2018-11-10T04:15:31.315Z,10.18
2018-11-10T04:18:00.305Z,10.19
2018-11-10T04:20:29.330Z,10.19
2018-11-10T04:22:58.321Z,10.18
2018-11-10T04:25:27.344Z,10.18
2018-11-10T04:27:56.310Z,10.20
2018-11-10T04:30:25.335Z,10.23
2018-11-10T04:32:54.354Z,10.24
2018-11-10T04:35:23.339Z,10.25
2018-11-10T04:37:52.339Z,10.29
2018-11-10T04:40:21.345Z,10.30
2018-11-10T04:42:50.416Z,10.32
2018-11-10T04:45:19.493Z,10.34
2018-11-10T04:47:48.503Z,10.35
2018-11-10T04:50:17.531Z,10.39
2018-11-10T04:52:46.573Z,10.39
2018-11-10T04:55:15.522Z,10.39
2018-11-10T04:57:44.512Z,10.37
2018-11-10T05:00:15.068Z,10.37
2018-11-10T05:02:45.191Z,10.38
2018-11-10T05:05:14.314Z,10.39
2018-11-10T05:07:43.297Z,10.35
2018-11-10T05:10:12.501Z,10.29
2018-11-10T05:12:41.715Z,10.26
2018-11-10T05:15:12.254Z,10.25
2018-11-10T05:17:41.466Z,10.20
2018-11-10T05:20:11.509Z,10.16
2018-11-10T05:22:40.562Z,10.13
2018-11-10T05:25:11.112Z,10.11
2018-11-10T05:27:40.377Z,10.10
2018-11-10T05:30:09.993Z,10.05
2018-11-10T05:32:39.084Z,10.00
2018-11-10T05:35:08.804Z,9.99
2018-11-10T05:37:38.227Z,9.98
2018-11-10T05:40:08.840Z,9.95
2018-11-10T05:42:37.969Z,9.92
2018-11-10T05:45:07.716Z,9.90
2018-11-10T05:47:36.723Z,9.89
2018-11-10T05:50:06.491Z,9.88
2018-11-10T05:52:35.457Z,9.85
2018-11-10T05:55:04.553Z,9.87
2018-11-10T05:57:33.532Z,9.88
2018-11-10T06:00:02.541Z,9.90
2018-11-10T06:02:31.656Z,9.89
2018-11-10T06:05:00.670Z,9.87
2018-11-10T06:07:29.764Z,9.84
2018-11-10T06:09:58.871Z,9.81
2018-11-10T06:12:28.681Z,9.80
2018-11-10T06:14:57.691Z,9.82
2018-11-10T06:17:26.661Z,9.82
2018-11-10T06:19:55.678Z,9.79
2018-11-10T06:22:24.687Z,9.77
2018-11-10T06:24:53.653Z,9.76
2018-11-10T06:27:22.629Z,9.75
2018-11-10T06:29:51.687Z,9.73
2018-11-10T06:32:20.772Z,9.72
2018-11-10T06:34:49.810Z,9.72
2018-11-10T06:37:18.832Z,9.73
2018-11-10T06:39:47.902Z,9.75
2018-11-10T06:42:16.897Z,9.78
2018-11-10T06:44:45.883Z,9.81
2018-11-10T06:47:14.905Z,9.83
2018-11-10T06:49:43.932Z,9.82
2018-11-10T06:52:13.708Z,9.84
2018-11-10T06:54:42.689Z,9.91
2018-11-10T06:57:11.738Z,9.96
2018-11-10T06:59:40.808Z,10.00
2018-11-10T07:02:09.908Z,10.06
2018-11-10T07:04:38.932Z,10.08
2018-11-10T07:07:08.047Z,10.11
2018-11-10T07:09:37.221Z,10.16
2018-11-10T07:12:06.615Z,10.18
2018-11-10T07:14:35.637Z,10.23
2018-11-10T07:17:04.740Z,10.29
2018-11-10T07:19:33.744Z,10.36
2018-11-10T07:22:02.940Z,10.40
2018-11-10T07:24:31.969Z,10.42
2018-11-10T07:27:00.972Z,10.44
2018-11-10T07:29:29.991Z,10.47
2018-11-10T07:31:59.034Z,10.51
2018-11-10T07:34:28.022Z,10.54
2018-11-10T07:36:56.996Z,10.58
2018-11-10T07:39:26.040Z,10.63
2018-11-10T07:41:55.223Z,10.64
2018-11-10T07:44:24.236Z,10.63
2018-11-10T07:46:53.344Z,10.64
2018-11-10T07:49:22.413Z,10.68
2018-11-10T07:51:51.394Z,10.70
2018-11-10T07:54:20.476Z,10.72
2018-11-10T07:56:49.522Z,10.71
2018-11-10T07:59:18.557Z,10.74
2018-11-10T08:01:47.557Z,10.75
2018-11-10T08:04:16.740Z,10.78
2018-11-10T08:06:45.769Z,10.81
2018-11-10T08:09:14.764Z,10.84
2018-11-10T08:11:43.866Z,10.83
2018-11-10T08:14:12.916Z,10.86
2018-11-10T08:16:42.039Z,10.85
2018-11-10T08:19:11.106Z,10.85
2018-11-10T08:21:40.122Z,10.85
2018-11-10T08:24:09.237Z,10.87
2018-11-10T08:26:38.310Z,10.85
2018-11-10T08:29:07.347Z,10.80
2018-11-10T08:31:36.426Z,10.75
2018-11-10T08:34:05.734Z,10.71
2018-11-10T08:36:34.837Z,10.67
2018-11-10T08:39:04.406Z,10.62
2018-11-10T08:41:33.471Z,10.61
2018-11-10T08:44:02.569Z,10.66
2018-11-10T08:46:31.610Z,10.67
2018-11-10T08:49:00.666Z,10.67
2018-11-10T08:51:30.118Z,10.65
2018-11-10T08:53:59.136Z,10.63
2018-11-10T08:56:28.729Z,10.60
2018-11-10T08:58:58.452Z,10.56
2018-11-10T09:01:28.177Z,10.53
2018-11-10T09:03:57.297Z,10.51
2018-11-10T09:06:26.328Z,10.49
2018-11-10T09:08:55.340Z,10.47
2018-11-10T09:11:24.438Z,10.46
2018-11-10T09:13:53.481Z,10.46
2018-11-10T09:16:22.634Z,10.45
2018-11-10T09:18:51.665Z,10.47
2018-11-10T09:21:20.961Z,10.48
2018-11-10T09:23:50.033Z,10.51
2018-11-10T09:26:19.065Z,10.55
2018-11-10T09:28:48.148Z,10.60
2018-11-10T09:31:17.441Z,10.65
2018-11-10T09:33:46.765Z,10.70
2018-11-10T09:36:15.835Z,10.77
2018-11-10T09:38:44.993Z,10.83
2018-11-10T09:41:14.101Z,10.90
2018-11-10T09:43:43.220Z,11.00
2018-11-10T09:46:12.576Z,11.10
2018-11-10T09:48:41.784Z,11.21
2018-11-10T09:51:10.874Z,11.27
2018-11-10T09:53:39.896Z,11.33
2018-11-10T09:56:09.022Z,11.37
2018-11-10T09:58:38.144Z,11.40
2018-11-10T10:01:07.315Z,11.42
2018-11-10T10:03:36.364Z,11.41
2018-11-10T10:06:05.764Z,11.41
2018-11-10T10:08:34.794Z,11.40
2018-11-10T10:11:03.880Z,11.40
2018-11-10T10:13:33.064Z,11.43
2018-11-10T10:16:02.250Z,11.46
2018-11-10T10:18:31.231Z,11.50
2018-11-10T10:21:00.490Z,11.55
2018-11-10T10:23:29.612Z,11.63
2018-11-10T10:25:58.788Z,11.71
2018-11-10T10:28:28.078Z,11.76
2018-11-10T10:30:57.097Z,11.81
2018-11-10T10:33:26.207Z,11.86
2018-11-10T10:35:55.386Z,11.91
2018-11-10T10:38:24.440Z,11.93
2018-11-10T10:40:53.572Z,11.96
2018-11-10T10:43:22.573Z,11.98
2018-11-10T10:45:51.611Z,11.99
2018-11-10T10:48:20.765Z,11.99
2018-11-10T10:50:49.872Z,11.98
2018-11-10T10:53:19.185Z,11.94
2018-11-10T10:55:48.336Z,11.92
2018-11-10T10:58:17.402Z,11.87
2018-11-10T11:00:51.557Z,11.81
2018-11-10T11:03:25.876Z,11.77
2018-11-10T11:05:58.852Z,11.73
2018-11-10T11:08:28.176Z,11.74
2018-11-10T11:10:57.233Z,11.77
2018-11-10T11:13:26.261Z,11.81
2018-11-10T11:15:55.380Z,11.83
2018-11-10T11:18:24.505Z,11.86
2018-11-10T11:21:00.081Z,11.88
2018-11-10T11:23:29.107Z,11.90
2018-11-10T11:25:58.192Z,11.94
2018-11-10T11:28:27.367Z,11.96
2018-11-10T11:30:56.689Z,11.98
2018-11-10T11:33:25.749Z,12.01
2018-11-10T11:35:55.136Z,12.06
2018-11-10T11:38:24.295Z,12.10
2018-11-10T11:40:53.516Z,12.14
2018-11-10T11:43:22.830Z,12.17
2018-11-10T11:45:52.024Z,12.18
2018-11-10T11:48:21.187Z,12.18
2018-11-10T11:50:50.269Z,12.18
2018-11-10T11:53:19.318Z,12.19
2018-11-10T11:55:49.775Z,12.20
2018-11-10T11:58:18.895Z,12.17
2018-11-10T12:00:47.989Z,12.18
2018-11-10T12:03:17.184Z,12.17
2018-11-10T12:05:48.261Z,12.15
2018-11-10T12:08:17.710Z,12.15
2018-11-10T12:10:47.816Z,12.16
2018-11-10T12:13:16.831Z,12.18
2018-11-10T12:15:45.897Z,12.22
2018-11-10T12:18:15.162Z,12.26
2018-11-10T12:20:44.304Z,12.32
2018-11-10T12:23:13.417Z,12.35
2018-11-10T12:25:42.470Z,12.39
2018-11-10T12:28:11.782Z,12.40
2018-11-10T12:30:40.919Z,12.38
2018-11-10T12:33:09.968Z,12.35
2018-11-10T12:35:38.943Z,12.32
2018-11-10T12:38:07.979Z,12.28
2018-11-10T12:40:37.016Z,12.25
2018-11-10T12:43:06.446Z,12.26
2018-11-10T12:45:35.567Z,12.29
2018-11-10T12:48:04.948Z,12.33
2018-11-10T12:50:33.947Z,12.38
2018-11-10T12:53:02.969Z,12.42
2018-11-10T12:55:31.953Z,12.49
2018-11-10T12:58:02.051Z,12.57
2018-11-10T13:00:31.206Z,12.64
2018-11-10T13:03:00.655Z,12.70
2018-11-10T13:05:29.714Z,12.76
2018-11-10T13:07:58.819Z,12.81
2018-11-10T13:10:28.809Z,12.87
2018-11-10T13:12:57.945Z,12.90
2018-11-10T13:15:27.147Z,12.90
2018-11-10T13:17:56.175Z,12.90
2018-11-10T13:20:25.273Z,12.89
2018-11-10T13:22:54.472Z,12.87
2018-11-10T13:25:23.631Z,12.86
2018-11-10T13:27:52.732Z,12.86
2018-11-10T13:30:23.159Z,12.86
2018-11-10T13:32:52.277Z,12.85
2018-11-10T13:35:21.337Z,12.84
2018-11-10T13:37:50.530Z,12.83
2018-11-10T13:40:19.600Z,12.85
2018-11-10T13:42:49.240Z,12.89
2018-11-10T13:45:18.182Z,12.97
2018-11-10T13:47:48.125Z,13.02
2018-11-10T13:50:17.135Z,13.07
2018-11-10T13:52:46.649Z,13.10
2018-11-10T13:55:15.428Z,13.11
2018-11-10T13:57:44.536Z,13.11
2018-11-10T14:00:15.528Z,13.11
2018-11-10T14:02:45.222Z,13.14
2018-11-10T14:05:15.112Z,13.15
2018-11-10T14:07:44.383Z,13.20
2018-11-10T14:10:14.627Z,13.24
2018-11-10T14:12:44.563Z,13.24
2018-11-10T14:15:13.771Z,13.25
2018-11-10T14:17:43.200Z,13.25
2018-11-10T14:20:14.515Z,13.26
2018-11-10T14:22:44.281Z,13.24
2018-11-10T14:25:14.586Z,13.23
2018-11-10T14:27:44.174Z,13.21
2018-11-10T14:30:14.711Z,13.19
2018-11-10T14:32:44.127Z,13.18
2018-11-10T14:35:13.599Z,13.12
2018-11-10T14:37:42.676Z,13.08
2018-11-10T14:40:13.236Z,13.03
2018-11-10T14:42:43.055Z,13.01
2018-11-10T14:45:13.804Z,12.98
2018-11-10T14:47:43.757Z,12.97
2018-11-10T14:50:13.903Z,12.94
2018-11-10T14:52:43.817Z,12.91
2018-11-10T14:55:13.512Z,12.90
2018-11-10T14:57:43.053Z,12.89
2018-11-10T15:00:19.514Z,12.87
2018-11-10T15:02:48.624Z,12.84
2018-11-10T15:05:17.623Z,12.83
2018-11-10T15:07:47.139Z,12.85
2018-11-10T15:10:17.237Z,12.87
2018-11-10T15:12:46.607Z,12.90
2018-11-10T15:15:16.626Z,12.92
2018-11-10T15:17:46.383Z,12.96
2018-11-10T15:20:17.579Z,12.96
2018-11-10T15:22:47.529Z,12.97
2018-11-10T15:25:18.855Z,12.97
2018-11-10T15:27:47.928Z,12.97
2018-11-10T15:30:18.300Z,12.99
2018-11-10T15:32:48.533Z,13.02
2018-11-10T15:35:19.064Z,13.03
2018-11-10T15:37:49.478Z,13.03
2018-11-10T15:40:19.225Z,13.00
2018-11-10T15:42:48.434Z,12.97
2018-11-10T15:45:19.221Z,12.91
2018-11-10T15:47:48.504Z,12.86
2018-11-10T15:50:18.501Z,12.82
2018-11-10T15:52:47.570Z,12.77
2018-11-10T15:55:16.592Z,12.73
2018-11-10T15:57:45.596Z,12.68
2018-11-10T16:00:16.072Z,12.64
2018-11-10T16:02:45.243Z,12.60
2018-11-10T16:05:14.798Z,12.55
2018-11-10T16:07:43.906Z,12.51
2018-11-10T16:10:13.314Z,12.46
2018-11-10T16:12:42.468Z,12.44
2018-11-10T16:15:13.662Z,12.41
2018-11-10T16:17:42.919Z,12.38
2018-11-10T16:20:14.769Z,12.36
2018-11-10T16:22:45.207Z,12.34
2018-11-10T16:25:14.283Z,12.31
2018-11-10T16:27:43.460Z,12.27
2018-11-10T16:30:14.080Z,12.24
2018-11-10T16:32:43.212Z,12.23
2018-11-10T16:35:12.294Z,12.22
2018-11-10T16:37:42.611Z,12.20
2018-11-10T16:40:14.409Z,12.21
2018-11-10T16:42:44.672Z,12.18
2018-11-10T16:45:14.558Z,12.17
2018-11-10T16:47:43.624Z,12.15
2018-11-10T16:50:13.362Z,12.11
2018-11-10T16:52:43.546Z,12.09
2018-11-10T16:55:12.667Z,12.08
2018-11-10T16:57:41.643Z,12.07
2018-11-10T17:00:13.183Z,12.05
2018-11-10T17:02:43.144Z,12.05
2018-11-10T17:05:12.165Z,12.03
2018-11-10T17:07:41.189Z,12.02
2018-11-10T17:10:13.165Z,12.00
2018-11-10T17:12:42.694Z,11.98
2018-11-10T17:15:11.845Z,11.96
2018-11-10T17:17:40.925Z,11.93
2018-11-10T17:20:12.585Z,11.87
2018-11-10T17:22:41.765Z,11.84
2018-11-10T17:25:11.618Z,11.78
2018-11-10T17:27:41.217Z,11.73
2018-11-10T17:30:13.346Z,11.67
2018-11-10T17:32:42.772Z,11.59
2018-11-10T17:35:12.595Z,11.55
2018-11-10T17:37:41.802Z,11.52
2018-11-10T17:40:11.997Z,11.49
2018-11-10T17:42:41.007Z,11.47
2018-11-10T17:45:15.066Z,11.46
2018-11-10T17:47:44.459Z,11.46
2018-11-10T17:50:15.682Z,11.45
2018-11-10T17:52:44.776Z,11.46
2018-11-10T17:55:14.862Z,11.45
2018-11-10T17:57:44.441Z,11.46
2018-11-10T18:00:13.980Z,11.45
2018-11-10T18:02:43.070Z,11.45
2018-11-10T18:05:13.945Z,11.46
2018-11-10T18:07:47.005Z,11.47
2018-11-10T18:10:18.713Z,11.47
2018-11-10T18:12:49.030Z,11.49
2018-11-10T18:15:20.336Z,11.50
2018-11-10T18:17:49.374Z,11.53
2018-11-10T18:20:19.812Z,11.55
2018-11-10T18:22:49.867Z,11.57
2018-11-10T18:25:19.093Z,11.60
2018-11-10T18:27:48.232Z,11.64
2018-11-10T18:30:19.190Z,11.67
2018-11-10T18:32:48.344Z,11.68
2018-11-10T18:35:17.429Z,11.71
2018-11-10T18:37:47.042Z,11.70
2018-11-10T18:40:16.223Z,11.71
2018-11-10T18:42:45.258Z,11.72
2018-11-10T18:45:14.554Z,11.71
2018-11-10T18:47:43.721Z,11.71
2018-11-10T18:50:15.256Z,11.72
2018-11-10T18:52:44.714Z,11.72
2018-11-10T18:55:14.936Z,11.70
2018-11-10T18:57:44.676Z,11.68
2018-11-10T19:00:17.113Z,11.68
2018-11-10T19:02:46.731Z,11.68
2018-11-10T19:05:16.972Z,11.66
2018-11-10T19:07:47.053Z,11.66
2018-11-10T19:10:17.435Z,11.64
2018-11-10T19:12:46.763Z,11.62
2018-11-10T19:15:19.360Z,11.62
2018-11-10T19:17:48.475Z,11.61
2018-11-10T19:20:18.739Z,11.59
2018-11-10T19:22:48.041Z,11.58
2018-11-10T19:25:17.211Z,11.58
2018-11-10T19:27:46.513Z,11.59
2018-11-10T19:30:17.865Z,11.60
2018-11-10T19:32:47.882Z,11.57
2018-11-10T19:35:17.866Z,11.53
2018-11-10T19:37:47.582Z,11.54
2018-11-10T19:40:16.726Z,11.52
2018-11-10T19:42:46.516Z,11.49
2018-11-10T19:45:16.897Z,11.46
2018-11-10T19:47:46.635Z,11.43
2018-11-10T19:50:16.196Z,11.40
2018-11-10T19:52:46.500Z,11.34
2018-11-10T19:55:16.820Z,11.29
2018-11-10T19:57:46.002Z,11.23
2018-11-10T20:00:21.499Z,11.16
2018-11-10T20:02:50.772Z,11.09
2018-11-10T20:05:19.918Z,11.05
2018-11-10T20:07:49.246Z,11.00
2018-11-10T20:10:18.305Z,10.96
2018-11-10T20:12:47.466Z,10.93
2018-11-10T20:15:17.647Z,10.89
2018-11-10T20:17:46.987Z,10.84
2018-11-10T20:20:17.386Z,10.81
2018-11-10T20:22:47.357Z,10.79
2018-11-10T20:25:17.692Z,10.78
2018-11-10T20:27:46.733Z,10.73
2018-11-10T20:30:18.083Z,10.70
2018-11-10T20:32:47.373Z,10.68
2018-11-10T20:35:16.370Z,10.68
2018-11-10T20:37:47.206Z,10.67
2018-11-10T20:40:17.678Z,10.68
2018-11-10T20:42:46.802Z,10.67
2018-11-10T20:45:18.891Z,10.68
2018-11-10T20:47:47.934Z,10.67
2018-11-10T20:50:17.493Z,10.66
2018-11-10T20:52:46.864Z,10.65
2018-11-10T20:55:16.165Z,10.61
2018-11-10T20:57:45.802Z,10.58
2018-11-10T21:00:18.945Z,10.59
2018-11-10T21:02:48.276Z,10.57
2018-11-10T21:05:17.640Z,10.54
2018-11-10T21:07:47.390Z,10.52
2018-11-10T21:10:18.070Z,10.51
2018-11-10T21:12:47.830Z,10.48
2018-11-10T21:15:17.672Z,10.47
2018-11-10T21:17:47.166Z,10.44
2018-11-10T21:20:16.294Z,10.42
2018-11-10T21:22:45.541Z,10.42
2018-11-10T21:25:16.163Z,10.40
2018-11-10T21:27:45.664Z,10.37
2018-11-10T21:30:16.344Z,10.34
2018-11-10T21:32:45.728Z,10.31
2018-11-10T21:35:15.024Z,10.29
2018-11-10T21:37:44.051Z,10.28
2018-11-10T21:40:15.439Z,10.28
2018-11-10T21:42:44.748Z,10.28
2018-11-10T21:45:14.539Z,10.28
2018-11-10T21:47:43.696Z,10.29
2018-11-10T21:50:14.176Z,10.30
2018-11-10T21:52:43.980Z,10.29
2018-11-10T21:55:14.623Z,10.30
2018-11-10T21:57:44.278Z,10.29
2018-11-10T22:00:15.253Z,10.28
2018-11-10T22:02:44.935Z,10.27
2018-11-10T22:05:13.910Z,10.25
2018-11-10T22:07:42.895Z,10.22
2018-11-10T22:10:13.605Z,10.18
2018-11-10T22:12:43.110Z,10.14
2018-11-10T22:15:14.731Z,10.13
2018-11-10T22:17:44.523Z,10.10
2018-11-10T22:20:15.877Z,10.07
2018-11-10T22:22:44.871Z,10.06
2018-11-10T22:25:14.313Z,10.04
2018-11-10T22:27:44.584Z,10.05
2018-11-10T22:30:15.720Z,10.05
2018-11-10T22:32:45.289Z,10.05
2018-11-10T22:35:14.537Z,10.08
2018-11-10T22:37:43.590Z,10.07
2018-11-10T22:40:15.834Z,10.09
2018-11-10T22:42:45.215Z,10.09
2018-11-10T22:45:16.929Z,10.10
2018-11-10T22:47:46.043Z,10.09
2018-11-10T22:50:16.634Z,10.07
2018-11-10T22:52:45.795Z,10.06
2018-11-10T22:55:14.844Z,10.04
2018-11-10T22:57:43.852Z,10.01
2018-11-10T23:00:20.049Z,9.99
2018-11-10T23:02:51.211Z,9.94
2018-11-10T23:05:20.896Z,9.90
2018-11-10T23:07:49.893Z,9.88
2018-11-10T23:10:19.198Z,9.85
2018-11-10T23:12:49.464Z,9.84
2018-11-10T23:15:18.695Z,9.81
2018-11-10T23:18:05.714Z,9.78
2018-11-10T23:20:53.314Z,9.76
2018-11-10T23:23:40.701Z,9.72
2018-11-10T23:26:26.803Z,9.72
2018-11-10T23:29:13.259Z,9.71
2018-11-10T23:31:42.955Z,9.72
2018-11-10T23:34:32.151Z,9.71
2018-11-10T23:37:18.104Z,9.70
2018-11-10T23:40:06.587Z,9.69
2018-11-10T23:42:55.470Z,9.68
2018-11-10T23:45:42.141Z,9.69
2018-11-10T23:48:29.782Z,9.69
2018-11-10T23:50:59.418Z,9.72
2018-11-10T23:53:44.918Z,9.72
2018-11-10T23:56:26.804Z,9.70
2018-11-10T23:59:11.271Z,9.68
